sensor_id;sensor_type;location;lat;lon;timestamp;pressure;altitude;pressure_sealevel;temperature;humidity
49709;BME280;35601;55.902;13.606;2023-02-23T00:02:03;100788.55;;;-0.71;76.44
49709;BME280;35601;55.902;13.606;2023-02-23T00:04:28;100788.60;;;-0.72;76.41
49709;BME280;35601;55.902;13.606;2023-02-23T00:06:54;100787.89;;;-0.89;77.01
49709;BME280;35601;55.902;13.606;2023-02-23T00:09:19;100788.31;;;-0.87;76.28
49709;BME280;35601;55.902;13.606;2023-02-23T00:11:44;100786.28;;;-1.09;76.40
49709;BME280;35601;55.902;13.606;2023-02-23T00:14:09;100777.50;;;-0.65;75.79
49709;BME280;35601;55.902;13.606;2023-02-23T00:16:35;100766.24;;;-0.66;75.58
49709;BME280;35601;55.902;13.606;2023-02-23T00:19:00;100761.82;;;-0.50;75.90
49709;BME280;35601;55.902;13.606;2023-02-23T00:21:28;100764.80;;;-0.71;76.42
49709;BME280;35601;55.902;13.606;2023-02-23T00:23:53;100756.71;;;-0.85;77.01
49709;BME280;35601;55.902;13.606;2023-02-23T00:26:16;100751.37;;;-0.80;77.08
49709;BME280;35601;55.902;13.606;2023-02-23T00:28:42;100748.04;;;-0.90;76.41
49709;BME280;35601;55.902;13.606;2023-02-23T00:31:07;100750.21;;;-0.91;77.40
49709;BME280;35601;55.902;13.606;2023-02-23T00:33:32;100748.24;;;-0.62;77.17
49709;BME280;35601;55.902;13.606;2023-02-23T00:36:03;100736.81;;;-0.74;77.01
49709;BME280;35601;55.902;13.606;2023-02-23T00:38:22;100741.28;;;-0.76;77.86
49709;BME280;35601;55.902;13.606;2023-02-23T00:40:47;100729.44;;;-0.44;77.06
49709;BME280;35601;55.902;13.606;2023-02-23T00:43:13;100725.83;;;-0.53;76.24
49709;BME280;35601;55.902;13.606;2023-02-23T00:45:38;100730.52;;;-0.44;76.10
49709;BME280;35601;55.902;13.606;2023-02-23T00:48:04;100724.18;;;-0.74;76.26
49709;BME280;35601;55.902;13.606;2023-02-23T00:50:29;100729.19;;;-0.86;76.83
49709;BME280;35601;55.902;13.606;2023-02-23T00:52:55;100736.03;;;-0.74;76.29
49709;BME280;35601;55.902;13.606;2023-02-23T00:55:19;100744.15;;;-0.99;77.38
49709;BME280;35601;55.902;13.606;2023-02-23T00:57:45;100745.92;;;-0.58;77.10
49709;BME280;35601;55.902;13.606;2023-02-23T01:00:11;100751.15;;;-0.82;77.43
49709;BME280;35601;55.902;13.606;2023-02-23T01:02:35;100752.47;;;-1.01;78.13
49709;BME280;35601;55.902;13.606;2023-02-23T01:05:01;100745.04;;;-0.83;77.92
49709;BME280;35601;55.902;13.606;2023-02-23T01:07:27;100744.68;;;-0.44;76.59
49709;BME280;35601;55.902;13.606;2023-02-23T01:09:52;100741.67;;;-1.19;78.21
49709;BME280;35601;55.902;13.606;2023-02-23T01:12:17;100737.16;;;-0.66;77.46
49709;BME280;35601;55.902;13.606;2023-02-23T01:14:42;100736.07;;;-0.96;77.66
49709;BME280;35601;55.902;13.606;2023-02-23T01:17:08;100734.02;;;-0.64;77.06
49709;BME280;35601;55.902;13.606;2023-02-23T01:19:33;100733.40;;;-0.78;76.30
49709;BME280;35601;55.902;13.606;2023-02-23T01:21:58;100728.18;;;-0.81;76.82
49709;BME280;35601;55.902;13.606;2023-02-23T01:24:24;100733.58;;;-1.09;78.23
49709;BME280;35601;55.902;13.606;2023-02-23T01:26:49;100727.76;;;-0.73;77.79
49709;BME280;35601;55.902;13.606;2023-02-23T01:29:16;100724.94;;;-0.65;77.44
49709;BME280;35601;55.902;13.606;2023-02-23T01:31:41;100721.67;;;-0.46;76.84
49709;BME280;35601;55.902;13.606;2023-02-23T01:34:06;100718.22;;;-0.53;76.87
49709;BME280;35601;55.902;13.606;2023-02-23T01:36:33;100712.37;;;-0.57;77.08
49709;BME280;35601;55.902;13.606;2023-02-23T01:38:56;100706.80;;;-0.55;76.18
49709;BME280;35601;55.902;13.606;2023-02-23T01:41:22;100714.74;;;-0.76;77.08
49709;BME280;35601;55.902;13.606;2023-02-23T01:43:56;100717.81;;;-0.66;77.09
49709;BME280;35601;55.902;13.606;2023-02-23T01:46:12;100717.27;;;-0.67;77.64
49709;BME280;35601;55.902;13.606;2023-02-23T01:48:38;100715.73;;;-0.64;77.59
49709;BME280;35601;55.902;13.606;2023-02-23T01:51:06;100712.73;;;-1.11;78.69
49709;BME280;35601;55.902;13.606;2023-02-23T01:53:31;100704.28;;;-0.62;78.79
49709;BME280;35601;55.902;13.606;2023-02-23T01:55:57;100705.78;;;-0.89;79.71
49709;BME280;35601;55.902;13.606;2023-02-23T01:58:21;100699.29;;;-1.27;80.83
49709;BME280;35601;55.902;13.606;2023-02-23T02:00:47;100686.85;;;-1.32;81.02
49709;BME280;35601;55.902;13.606;2023-02-23T02:03:14;100685.31;;;-1.29;81.21
49709;BME280;35601;55.902;13.606;2023-02-23T02:05:36;100685.43;;;-1.48;82.17
49709;BME280;35601;55.902;13.606;2023-02-23T02:08:02;100675.80;;;-1.36;82.56
49709;BME280;35601;55.902;13.606;2023-02-23T02:10:27;100665.81;;;-1.32;82.12
49709;BME280;35601;55.902;13.606;2023-02-23T02:12:54;100657.84;;;-1.55;82.30
49709;BME280;35601;55.902;13.606;2023-02-23T02:15:19;100654.26;;;-1.74;83.45
49709;BME280;35601;55.902;13.606;2023-02-23T02:17:50;100658.01;;;-1.40;82.70
49709;BME280;35601;55.902;13.606;2023-02-23T02:20:27;100659.74;;;-1.37;82.72
49709;BME280;35601;55.902;13.606;2023-02-23T02:22:48;100662.97;;;-1.65;83.58
49709;BME280;35601;55.902;13.606;2023-02-23T02:25:20;100661.68;;;-1.45;83.52
49709;BME280;35601;55.902;13.606;2023-02-23T02:27:39;100655.99;;;-1.56;84.07
49709;BME280;35601;55.902;13.606;2023-02-23T02:30:12;100655.31;;;-1.68;83.88
49709;BME280;35601;55.902;13.606;2023-02-23T02:32:30;100645.81;;;-1.93;84.69
49709;BME280;35601;55.902;13.606;2023-02-23T02:35:00;100643.98;;;-1.18;83.26
49709;BME280;35601;55.902;13.606;2023-02-23T02:37:17;100641.56;;;-1.43;83.10
49709;BME280;35601;55.902;13.606;2023-02-23T02:39:41;100638.16;;;-1.50;83.39
49709;BME280;35601;55.902;13.606;2023-02-23T02:42:07;100640.15;;;-1.59;83.74
49709;BME280;35601;55.902;13.606;2023-02-23T02:44:29;100637.49;;;-1.45;83.01
49709;BME280;35601;55.902;13.606;2023-02-23T02:46:53;100629.54;;;-1.38;82.70
49709;BME280;35601;55.902;13.606;2023-02-23T02:49:19;100626.96;;;-1.24;81.48
49709;BME280;35601;55.902;13.606;2023-02-23T02:51:42;100617.98;;;-1.23;82.27
49709;BME280;35601;55.902;13.606;2023-02-23T02:54:09;100614.10;;;-1.31;82.11
49709;BME280;35601;55.902;13.606;2023-02-23T02:56:29;100617.30;;;-1.47;83.02
49709;BME280;35601;55.902;13.606;2023-02-23T02:58:55;100615.75;;;-1.20;82.09
49709;BME280;35601;55.902;13.606;2023-02-23T03:01:20;100607.23;;;-1.05;81.84
49709;BME280;35601;55.902;13.606;2023-02-23T03:03:46;100604.88;;;-1.05;81.60
49709;BME280;35601;55.902;13.606;2023-02-23T03:06:11;100605.19;;;-1.30;81.74
49709;BME280;35601;55.902;13.606;2023-02-23T03:08:40;100603.11;;;-1.60;82.54
49709;BME280;35601;55.902;13.606;2023-02-23T03:11:05;100601.08;;;-1.47;82.97
49709;BME280;35601;55.902;13.606;2023-02-23T03:13:35;100608.28;;;-1.11;81.89
49709;BME280;35601;55.902;13.606;2023-02-23T03:15:59;100602.30;;;-1.06;81.91
49709;BME280;35601;55.902;13.606;2023-02-23T03:18:31;100599.25;;;-1.22;82.28
49709;BME280;35601;55.902;13.606;2023-02-23T03:20:48;100600.29;;;-1.38;82.27
49709;BME280;35601;55.902;13.606;2023-02-23T03:23:15;100592.04;;;-0.84;80.91
49709;BME280;35601;55.902;13.606;2023-02-23T03:25:44;100583.30;;;-0.86;80.93
49709;BME280;35601;55.902;13.606;2023-02-23T03:28:07;100589.07;;;-1.48;81.82
49709;BME280;35601;55.902;13.606;2023-02-23T03:30:29;100582.94;;;-1.23;81.45
49709;BME280;35601;55.902;13.606;2023-02-23T03:32:53;100576.84;;;-1.25;80.44
49709;BME280;35601;55.902;13.606;2023-02-23T03:35:21;100575.69;;;-1.10;80.70
49709;BME280;35601;55.902;13.606;2023-02-23T03:37:46;100573.61;;;-0.84;80.84
49709;BME280;35601;55.902;13.606;2023-02-23T03:40:12;100575.64;;;-1.28;81.32
49709;BME280;35601;55.902;13.606;2023-02-23T03:42:34;100577.42;;;-1.23;81.54
49709;BME280;35601;55.902;13.606;2023-02-23T03:45:02;100573.27;;;-0.92;81.48
49709;BME280;35601;55.902;13.606;2023-02-23T03:47:26;100575.04;;;-1.24;81.98
49709;BME280;35601;55.902;13.606;2023-02-23T03:49:49;100571.48;;;-1.17;82.00
49709;BME280;35601;55.902;13.606;2023-02-23T03:52:17;100566.27;;;-1.08;81.39
49709;BME280;35601;55.902;13.606;2023-02-23T03:54:43;100567.81;;;-0.91;80.64
49709;BME280;35601;55.902;13.606;2023-02-23T03:57:06;100568.23;;;-1.13;81.72
49709;BME280;35601;55.902;13.606;2023-02-23T03:59:31;100566.66;;;-1.42;82.04
49709;BME280;35601;55.902;13.606;2023-02-23T04:01:55;100565.51;;;-1.27;82.06
49709;BME280;35601;55.902;13.606;2023-02-23T04:04:21;100560.38;;;-1.07;80.97
49709;BME280;35601;55.902;13.606;2023-02-23T04:06:46;100559.05;;;-0.81;80.07
49709;BME280;35601;55.902;13.606;2023-02-23T04:09:11;100556.30;;;-0.80;79.58
49709;BME280;35601;55.902;13.606;2023-02-23T04:11:44;100551.05;;;-0.74;79.23
49709;BME280;35601;55.902;13.606;2023-02-23T04:14:04;100545.10;;;-0.99;78.99
49709;BME280;35601;55.902;13.606;2023-02-23T04:16:28;100543.14;;;-1.06;78.46
49709;BME280;35601;55.902;13.606;2023-02-23T04:18:52;100540.00;;;-0.87;79.27
49709;BME280;35601;55.902;13.606;2023-02-23T04:21:17;100533.27;;;-0.64;78.64
49709;BME280;35601;55.902;13.606;2023-02-23T04:23:43;100533.31;;;-0.80;78.85
49709;BME280;35601;55.902;13.606;2023-02-23T04:26:08;100534.00;;;-0.86;79.27
49709;BME280;35601;55.902;13.606;2023-02-23T04:28:34;100536.98;;;-0.76;79.77
49709;BME280;35601;55.902;13.606;2023-02-23T04:30:59;100533.26;;;-1.14;80.35
49709;BME280;35601;55.902;13.606;2023-02-23T04:33:24;100526.04;;;-0.84;80.07
49709;BME280;35601;55.902;13.606;2023-02-23T04:35:51;100524.30;;;-1.22;82.17
49709;BME280;35601;55.902;13.606;2023-02-23T04:38:15;100524.26;;;-0.89;80.86
49709;BME280;35601;55.902;13.606;2023-02-23T04:40:40;100522.67;;;-0.77;80.13
49709;BME280;35601;55.902;13.606;2023-02-23T04:43:06;100516.41;;;-1.21;80.18
49709;BME280;35601;55.902;13.606;2023-02-23T04:45:32;100514.89;;;-0.90;80.32
49709;BME280;35601;55.902;13.606;2023-02-23T04:47:56;100508.17;;;-1.01;80.65
49709;BME280;35601;55.902;13.606;2023-02-23T04:50:22;100508.12;;;-1.28;81.71
49709;BME280;35601;55.902;13.606;2023-02-23T04:52:47;100504.04;;;-1.29;82.96
49709;BME280;35601;55.902;13.606;2023-02-23T04:55:16;100502.91;;;-1.09;82.48
49709;BME280;35601;55.902;13.606;2023-02-23T04:57:38;100502.71;;;-1.50;83.09
49709;BME280;35601;55.902;13.606;2023-02-23T05:00:05;100500.05;;;-1.42;83.74
49709;BME280;35601;55.902;13.606;2023-02-23T05:02:29;100499.37;;;-1.55;84.04
49709;BME280;35601;55.902;13.606;2023-02-23T05:04:54;100491.78;;;-1.50;84.05
49709;BME280;35601;55.902;13.606;2023-02-23T05:07:20;100492.66;;;-1.19;83.76
49709;BME280;35601;55.902;13.606;2023-02-23T05:09:45;100491.48;;;-1.21;83.85
49709;BME280;35601;55.902;13.606;2023-02-23T05:12:10;100488.91;;;-1.20;83.46
49709;BME280;35601;55.902;13.606;2023-02-23T05:14:36;100487.03;;;-1.63;84.51
49709;BME280;35601;55.902;13.606;2023-02-23T05:17:01;100483.31;;;-1.13;83.22
49709;BME280;35601;55.902;13.606;2023-02-23T05:19:27;100482.16;;;-0.96;82.74
49709;BME280;35601;55.902;13.606;2023-02-23T05:21:52;100482.88;;;-1.37;83.35
49709;BME280;35601;55.902;13.606;2023-02-23T05:24:18;100476.18;;;-1.15;83.37
49709;BME280;35601;55.902;13.606;2023-02-23T05:26:43;100477.18;;;-1.23;82.75
49709;BME280;35601;55.902;13.606;2023-02-23T05:29:08;100474.32;;;-1.28;82.17
49709;BME280;35601;55.902;13.606;2023-02-23T05:31:33;100474.63;;;-1.32;82.31
49709;BME280;35601;55.902;13.606;2023-02-23T05:33:59;100473.64;;;-1.04;83.30
49709;BME280;35601;55.902;13.606;2023-02-23T05:36:24;100472.94;;;-1.29;83.85
49709;BME280;35601;55.902;13.606;2023-02-23T05:38:49;100469.59;;;-1.62;84.60
49709;BME280;35601;55.902;13.606;2023-02-23T05:41:16;100472.22;;;-1.69;86.17
49709;BME280;35601;55.902;13.606;2023-02-23T05:43:40;100471.33;;;-1.93;87.22
49709;BME280;35601;55.902;13.606;2023-02-23T05:46:06;100467.48;;;-1.39;86.68
49709;BME280;35601;55.902;13.606;2023-02-23T05:48:31;100467.24;;;-1.89;88.19
49709;BME280;35601;55.902;13.606;2023-02-23T05:51:00;100467.49;;;-1.66;88.41
49709;BME280;35601;55.902;13.606;2023-02-23T05:53:22;100464.90;;;-1.92;87.72
49709;BME280;35601;55.902;13.606;2023-02-23T05:55:47;100466.29;;;-1.84;88.75
49709;BME280;35601;55.902;13.606;2023-02-23T05:58:12;100458.33;;;-1.70;88.73
49709;BME280;35601;55.902;13.606;2023-02-23T06:00:37;100454.87;;;-1.58;87.68
49709;BME280;35601;55.902;13.606;2023-02-23T06:03:03;100456.29;;;-1.59;88.68
49709;BME280;35601;55.902;13.606;2023-02-23T06:05:28;100451.73;;;-1.70;87.88
49709;BME280;35601;55.902;13.606;2023-02-23T06:07:53;100453.24;;;-1.50;87.42
49709;BME280;35601;55.902;13.606;2023-02-23T06:10:19;100453.14;;;-1.96;88.81
49709;BME280;35601;55.902;13.606;2023-02-23T06:12:44;100445.98;;;-1.69;89.13
49709;BME280;35601;55.902;13.606;2023-02-23T06:15:10;100438.44;;;-1.43;87.83
49709;BME280;35601;55.902;13.606;2023-02-23T06:17:36;100439.87;;;-1.81;88.93
49709;BME280;35601;55.902;13.606;2023-02-23T06:20:01;100440.99;;;-1.72;87.98
49709;BME280;35601;55.902;13.606;2023-02-23T06:22:26;100440.13;;;-1.51;86.97
49709;BME280;35601;55.902;13.606;2023-02-23T06:24:51;100437.14;;;-1.71;87.62
49709;BME280;35601;55.902;13.606;2023-02-23T06:27:17;100431.69;;;-1.48;87.12
49709;BME280;35601;55.902;13.606;2023-02-23T06:29:42;100432.76;;;-1.66;87.84
49709;BME280;35601;55.902;13.606;2023-02-23T06:32:07;100432.66;;;-1.41;86.87
49709;BME280;35601;55.902;13.606;2023-02-23T06:34:33;100441.33;;;-1.44;87.19
49709;BME280;35601;55.902;13.606;2023-02-23T06:36:58;100441.41;;;-1.53;87.71
49709;BME280;35601;55.902;13.606;2023-02-23T06:39:24;100432.01;;;-1.44;87.01
49709;BME280;35601;55.902;13.606;2023-02-23T06:41:49;100429.92;;;-1.47;87.90
49709;BME280;35601;55.902;13.606;2023-02-23T06:44:15;100427.91;;;-1.36;88.36
49709;BME280;35601;55.902;13.606;2023-02-23T06:46:40;100427.67;;;-1.48;88.81
49709;BME280;35601;55.902;13.606;2023-02-23T06:49:06;100425.97;;;-1.08;88.34
49709;BME280;35601;55.902;13.606;2023-02-23T06:51:31;100425.43;;;-1.65;88.03
49709;BME280;35601;55.902;13.606;2023-02-23T06:53:56;100424.57;;;-1.70;90.06
49709;BME280;35601;55.902;13.606;2023-02-23T06:56:22;100426.96;;;-1.54;91.06
49709;BME280;35601;55.902;13.606;2023-02-23T06:58:48;100430.91;;;-2.78;90.32
49709;BME280;35601;55.902;13.606;2023-02-23T07:01:13;100433.48;;;-1.58;90.25
49709;BME280;35601;55.902;13.606;2023-02-23T07:03:38;100433.88;;;-1.21;91.06
49709;BME280;35601;55.902;13.606;2023-02-23T07:06:04;100438.41;;;-1.07;91.29
49709;BME280;35601;55.902;13.606;2023-02-23T07:08:29;100442.25;;;-1.39;91.09
49709;BME280;35601;55.902;13.606;2023-02-23T07:10:54;100450.48;;;-1.43;90.31
49709;BME280;35601;55.902;13.606;2023-02-23T07:13:20;100445.86;;;-1.20;89.39
49709;BME280;35601;55.902;13.606;2023-02-23T07:15:45;100446.78;;;-1.47;90.36
49709;BME280;35601;55.902;13.606;2023-02-23T07:18:11;100446.70;;;-1.08;89.93
49709;BME280;35601;55.902;13.606;2023-02-23T07:20:36;100441.34;;;-1.37;90.72
49709;BME280;35601;55.902;13.606;2023-02-23T07:23:02;100440.40;;;-1.49;90.26
49709;BME280;35601;55.902;13.606;2023-02-23T07:25:27;100444.04;;;-1.28;90.72
49709;BME280;35601;55.902;13.606;2023-02-23T07:27:53;100437.81;;;-1.38;91.36
49709;BME280;35601;55.902;13.606;2023-02-23T07:30:19;100444.68;;;-1.29;92.01
49709;BME280;35601;55.902;13.606;2023-02-23T07:32:44;100443.31;;;-1.42;91.78
49709;BME280;35601;55.902;13.606;2023-02-23T07:35:09;100442.23;;;-1.22;91.70
49709;BME280;35601;55.902;13.606;2023-02-23T07:37:34;100441.35;;;-1.36;91.51
49709;BME280;35601;55.902;13.606;2023-02-23T07:40:00;100442.95;;;-1.61;92.32
49709;BME280;35601;55.902;13.606;2023-02-23T07:42:25;100441.34;;;-1.61;93.57
49709;BME280;35601;55.902;13.606;2023-02-23T07:44:50;100429.99;;;-1.65;93.46
49709;BME280;35601;55.902;13.606;2023-02-23T07:47:16;100429.19;;;-1.36;92.58
49709;BME280;35601;55.902;13.606;2023-02-23T07:49:42;100426.28;;;-1.16;91.84
49709;BME280;35601;55.902;13.606;2023-02-23T07:52:07;100426.22;;;-0.97;90.59
49709;BME280;35601;55.902;13.606;2023-02-23T07:54:33;100424.68;;;-0.83;89.84
49709;BME280;35601;55.902;13.606;2023-02-23T07:56:59;100432.08;;;-0.63;89.21
49709;BME280;35601;55.902;13.606;2023-02-23T07:59:24;100430.52;;;-0.80;89.12
49709;BME280;35601;55.902;13.606;2023-02-23T08:01:49;100432.24;;;-0.64;88.90
49709;BME280;35601;55.902;13.606;2023-02-23T08:04:15;100438.60;;;-0.67;88.14
49709;BME280;35601;55.902;13.606;2023-02-23T08:06:40;100434.97;;;-0.76;88.56
49709;BME280;35601;55.902;13.606;2023-02-23T08:09:05;100429.56;;;-0.94;89.72
49709;BME280;35601;55.902;13.606;2023-02-23T08:11:31;100427.41;;;-0.58;88.88
49709;BME280;35601;55.902;13.606;2023-02-23T08:13:57;100428.57;;;-0.35;89.08
49709;BME280;35601;55.902;13.606;2023-02-23T08:16:22;100428.04;;;-0.37;88.69
49709;BME280;35601;55.902;13.606;2023-02-23T08:18:48;100422.68;;;-0.40;89.51
49709;BME280;35601;55.902;13.606;2023-02-23T08:21:13;100418.19;;;-0.83;89.67
49709;BME280;35601;55.902;13.606;2023-02-23T08:23:39;100416.37;;;-0.64;89.92
49709;BME280;35601;55.902;13.606;2023-02-23T08:26:04;100416.89;;;-0.39;89.45
49709;BME280;35601;55.902;13.606;2023-02-23T08:28:30;100423.03;;;-0.41;88.66
49709;BME280;35601;55.902;13.606;2023-02-23T08:30:56;100423.58;;;-0.53;89.09
49709;BME280;35601;55.902;13.606;2023-02-23T08:33:21;100414.63;;;-0.55;89.88
49709;BME280;35601;55.902;13.606;2023-02-23T08:35:46;100406.55;;;-0.34;89.80
49709;BME280;35601;55.902;13.606;2023-02-23T08:38:11;100407.12;;;-0.34;89.61
49709;BME280;35601;55.902;13.606;2023-02-23T08:40:37;100401.92;;;-0.56;90.54
49709;BME280;35601;55.902;13.606;2023-02-23T08:43:02;100401.80;;;-0.23;90.59
49709;BME280;35601;55.902;13.606;2023-02-23T08:45:28;100394.74;;;-0.28;90.07
49709;BME280;35601;55.902;13.606;2023-02-23T08:47:54;100383.92;;;-0.12;89.24
49709;BME280;35601;55.902;13.606;2023-02-23T08:50:19;100380.01;;;-0.36;89.76
49709;BME280;35601;55.902;13.606;2023-02-23T08:52:45;100380.72;;;0.07;89.58
49709;BME280;35601;55.902;13.606;2023-02-23T08:55:10;100383.68;;;-0.43;89.39
49709;BME280;35601;55.902;13.606;2023-02-23T08:57:35;100380.81;;;-0.32;88.58
49709;BME280;35601;55.902;13.606;2023-02-23T09:00:02;100374.43;;;0.12;88.69
49709;BME280;35601;55.902;13.606;2023-02-23T09:02:27;100376.15;;;-0.37;89.02
49709;BME280;35601;55.902;13.606;2023-02-23T09:04:52;100383.34;;;-0.15;88.70
49709;BME280;35601;55.902;13.606;2023-02-23T09:07:17;100380.46;;;-0.22;88.28
49709;BME280;35601;55.902;13.606;2023-02-23T09:09:42;100380.30;;;-0.21;87.79
49709;BME280;35601;55.902;13.606;2023-02-23T09:12:08;100374.68;;;-0.29;88.28
49709;BME280;35601;55.902;13.606;2023-02-23T09:14:33;100379.37;;;0.26;87.93
49709;BME280;35601;55.902;13.606;2023-02-23T09:16:58;100379.20;;;0.05;87.46
49709;BME280;35601;55.902;13.606;2023-02-23T09:19:23;100379.55;;;0.13;88.10
49709;BME280;35601;55.902;13.606;2023-02-23T09:21:49;100380.89;;;0.15;87.34
49709;BME280;35601;55.902;13.606;2023-02-23T09:24:15;100372.42;;;0.26;87.54
49709;BME280;35601;55.902;13.606;2023-02-23T09:26:40;100370.82;;;0.36;87.08
49709;BME280;35601;55.902;13.606;2023-02-23T09:29:06;100371.44;;;0.38;88.08
49709;BME280;35601;55.902;13.606;2023-02-23T09:31:31;100366.85;;;0.30;87.90
49709;BME280;35601;55.902;13.606;2023-02-23T09:33:56;100363.09;;;0.40;88.11
49709;BME280;35601;55.902;13.606;2023-02-23T09:36:23;100358.75;;;0.05;88.57
49709;BME280;35601;55.902;13.606;2023-02-23T09:38:49;100351.84;;;0.18;87.58
49709;BME280;35601;55.902;13.606;2023-02-23T09:41:26;100353.99;;;0.16;88.31
49709;BME280;35601;55.902;13.606;2023-02-23T09:43:43;100351.21;;;-0.14;88.96
49709;BME280;35601;55.902;13.606;2023-02-23T09:46:10;100349.29;;;0.01;89.85
49709;BME280;35601;55.902;13.606;2023-02-23T09:48:29;100345.78;;;-0.09;90.50
49709;BME280;35601;55.902;13.606;2023-02-23T09:50:55;100338.56;;;0.07;90.14
49709;BME280;35601;55.902;13.606;2023-02-23T09:53:26;100333.08;;;-0.14;91.42
49709;BME280;35601;55.902;13.606;2023-02-23T09:55:44;100330.22;;;0.33;91.66
49709;BME280;35601;55.902;13.606;2023-02-23T09:58:18;100328.54;;;0.19;91.36
49709;BME280;35601;55.902;13.606;2023-02-23T10:00:39;100321.84;;;0.27;90.34
49709;BME280;35601;55.902;13.606;2023-02-23T10:03:11;100324.26;;;0.02;90.52
49709;BME280;35601;55.902;13.606;2023-02-23T10:05:27;100318.28;;;0.26;91.25
49709;BME280;35601;55.902;13.606;2023-02-23T10:07:55;100317.27;;;0.06;91.11
49709;BME280;35601;55.902;13.606;2023-02-23T10:10:23;100318.42;;;0.38;91.17
49709;BME280;35601;55.902;13.606;2023-02-23T10:12:49;100307.12;;;0.43;90.44
49709;BME280;35601;55.902;13.606;2023-02-23T10:15:15;100306.66;;;0.50;89.04
49709;BME280;35601;55.902;13.606;2023-02-23T10:17:38;100304.95;;;0.69;88.87
49709;BME280;35601;55.902;13.606;2023-02-23T10:20:06;100315.86;;;0.58;89.14
49709;BME280;35601;55.902;13.606;2023-02-23T10:22:25;100318.16;;;0.48;89.19
49709;BME280;35601;55.902;13.606;2023-02-23T10:24:53;100315.46;;;0.62;89.11
49709;BME280;35601;55.902;13.606;2023-02-23T10:27:17;100322.39;;;0.38;89.93
49709;BME280;35601;55.902;13.606;2023-02-23T10:29:46;100319.29;;;0.58;90.41
49709;BME280;35601;55.902;13.606;2023-02-23T10:32:14;100313.49;;;0.10;90.33
49709;BME280;35601;55.902;13.606;2023-02-23T10:34:32;100306.79;;;0.08;90.57
49709;BME280;35601;55.902;13.606;2023-02-23T10:37:00;100309.24;;;0.38;91.17
49709;BME280;35601;55.902;13.606;2023-02-23T10:39:24;100304.98;;;0.54;90.98
49709;BME280;35601;55.902;13.606;2023-02-23T10:41:49;100296.27;;;0.75;90.22
49709;BME280;35601;55.902;13.606;2023-02-23T10:44:18;100289.92;;;0.88;89.49
49709;BME280;35601;55.902;13.606;2023-02-23T10:46:40;100287.02;;;0.73;89.64
49709;BME280;35601;55.902;13.606;2023-02-23T10:49:06;100286.43;;;0.69;89.31
49709;BME280;35601;55.902;13.606;2023-02-23T10:51:35;100288.28;;;0.73;89.79
49709;BME280;35601;55.902;13.606;2023-02-23T10:53:56;100284.20;;;0.83;89.59
49709;BME280;35601;55.902;13.606;2023-02-23T10:56:22;100280.00;;;0.65;90.31
49709;BME280;35601;55.902;13.606;2023-02-23T10:58:49;100276.04;;;0.53;91.23
49709;BME280;35601;55.902;13.606;2023-02-23T11:01:14;100268.82;;;0.86;90.86
49709;BME280;35601;55.902;13.606;2023-02-23T11:03:39;100268.45;;;0.75;90.67
49709;BME280;35601;55.902;13.606;2023-02-23T11:06:03;100265.20;;;0.80;90.89
49709;BME280;35601;55.902;13.606;2023-02-23T11:08:32;100271.19;;;0.60;90.51
49709;BME280;35601;55.902;13.606;2023-02-23T11:10:56;100269.82;;;0.89;90.27
49709;BME280;35601;55.902;13.606;2023-02-23T11:13:21;100264.24;;;1.05;90.59
49709;BME280;35601;55.902;13.606;2023-02-23T11:15:45;100257.92;;;0.79;90.19
49709;BME280;35601;55.902;13.606;2023-02-23T11:18:18;100252.02;;;1.09;90.21
49709;BME280;35601;55.902;13.606;2023-02-23T11:20:38;100253.76;;;0.74;89.83
49709;BME280;35601;55.902;13.606;2023-02-23T11:23:08;100250.01;;;1.05;90.46
49709;BME280;35601;55.902;13.606;2023-02-23T11:25:29;100245.16;;;0.90;90.33
49709;BME280;35601;55.902;13.606;2023-02-23T11:27:52;100242.02;;;1.01;91.07
49709;BME280;35601;55.902;13.606;2023-02-23T11:30:20;100243.91;;;1.00;90.35
49709;BME280;35601;55.902;13.606;2023-02-23T11:32:43;100241.76;;;0.85;90.12
49709;BME280;35601;55.902;13.606;2023-02-23T11:35:23;100244.48;;;0.79;89.62
49709;BME280;35601;55.902;13.606;2023-02-23T11:37:34;100239.60;;;1.11;89.10
49709;BME280;35601;55.902;13.606;2023-02-23T11:40:01;100238.74;;;0.63;89.26
49709;BME280;35601;55.902;13.606;2023-02-23T11:42:26;100239.85;;;1.29;89.49
49709;BME280;35601;55.902;13.606;2023-02-23T11:45:00;100234.43;;;0.88;89.39
49709;BME280;35601;55.902;13.606;2023-02-23T11:47:18;100233.12;;;1.21;88.99
49709;BME280;35601;55.902;13.606;2023-02-23T11:49:44;100232.62;;;0.77;88.67
49709;BME280;35601;55.902;13.606;2023-02-23T11:52:12;100233.06;;;1.14;88.14
49709;BME280;35601;55.902;13.606;2023-02-23T11:54:33;100230.92;;;1.06;88.20
49709;BME280;35601;55.902;13.606;2023-02-23T11:56:58;100229.54;;;1.04;88.08
49709;BME280;35601;55.902;13.606;2023-02-23T11:59:27;100230.56;;;0.94;88.57
49709;BME280;35601;55.902;13.606;2023-02-23T12:01:52;100228.20;;;1.07;87.90
49709;BME280;35601;55.902;13.606;2023-02-23T12:04:26;100217.59;;;0.93;87.66
49709;BME280;35601;55.902;13.606;2023-02-23T12:06:40;100213.32;;;0.93;87.97
49709;BME280;35601;55.902;13.606;2023-02-23T12:09:14;100213.07;;;1.08;88.64
49709;BME280;35601;55.902;13.606;2023-02-23T12:11:36;100207.06;;;0.98;88.17
49709;BME280;35601;55.902;13.606;2023-02-23T12:14:02;100207.16;;;0.93;88.71
49709;BME280;35601;55.902;13.606;2023-02-23T12:16:25;100206.48;;;0.83;89.58
49709;BME280;35601;55.902;13.606;2023-02-23T12:18:53;100199.29;;;0.95;89.53
49709;BME280;35601;55.902;13.606;2023-02-23T12:21:23;100197.18;;;1.07;89.68
49709;BME280;35601;55.902;13.606;2023-02-23T12:23:40;100193.09;;;0.93;90.21
49709;BME280;35601;55.902;13.606;2023-02-23T12:26:08;100189.00;;;0.78;90.64
49709;BME280;35601;55.902;13.606;2023-02-23T12:28:34;100193.98;;;1.04;90.77
49709;BME280;35601;55.902;13.606;2023-02-23T12:30:59;100191.14;;;1.07;89.51
49709;BME280;35601;55.902;13.606;2023-02-23T12:33:24;100188.02;;;0.91;89.03